Aérodrome :
LOGIN :

S'inscrire | Disclaimer

   EN    FR    IT 

 










Légende :    VFR   VFR Marginal   IFR   IFR Intensif   IFR Très Intensif
Visi : 
Plafond : 
>= 8 km
>= 3000ft
5 à 8 km
1000 à 3000 ft
1500m à 5 km
500 à 1000 ft
800 à 1500m
200 à 500 ft
< 800m
< 200 ft
Symboles :   Orages  Brouillard  Fortes neiges  Fortes précipitations  Vent > 20 kt
SIGMETs :   Divers  Orages  Givrage  Turbulence  Onde Orograph.  Cendres Volcan.






- Altitude de l'aérodrome : 37 ft
- Code IATA : FRO


ENFL - Florø

DERNIER METAR :
  • 171450Z 17023KT 9999 VCSH FEW025CB SCT045 08/03 Q1001

METARs EXPIRÉS :
  • 171420Z 18026KT 9999 VCSH FEW025CB SCT035 BKN045 08/03 Q1001
  • 171350Z 17023KT 9999 FEW025TCU SCT035 BKN050 09/04 Q1000
  • 171320Z 17023G33KT 9999 FEW030 BKN045 08/04 Q1001
  • 171250Z 17024KT 9999 FEW020 SCT040 09/03 Q1001
  • 171220Z 17022G33KT 9999 FEW020 SCT035 08/04 Q1001

TAF TAF ENFL
Valide du 17 à 15h jusqu'au 18 à 00h UTC


171400Z 1715/1724 17022G32KT 9999 -SHRA FEW015 BKN025
PROB30
TEMPO 1718/1724 SHRA BKN015CB



MET'MAP, la Météo Aéronautique d'un coup d'oeil ! - Copyright ORBIFLY Décembre 2007 - Disclaimer

ORBIFLY MET'MAP TEAM :

Programmation & Développement : Alexandra Zaïnal
Sur une idée originale de : Baudouin d'Aumeries
Assistance à la programmation : Marc-Olivier Méhu
Soutien technique & logistique : Manuel Goepfert

Contact : metmap@orbifly.com




SOURCES & CREDITS :

   NOAA